AUR215 EGJA-EGJB

Flight info

Callsign AUR215
Flight time 0h 15m
Altitude 3500
Route GUR
Aircraft C208/L-SDFGR/C

Departure

Time 2026-05-04 09:41
Airport Alderney Airport (EGJA)

Arrival

Time 2026-05-04 09:56
Airport Guernsey Airport (EGJB)
Time Latitude Longitude Altitude Speed Heading
2026-05-04 09:37 49.70852 -2.21457 294 ft 0 kts 340°
2026-05-04 09:38 49.70864 -2.21446 294 ft 1 kts 79°
2026-05-04 09:38 49.70855 -2.21429 293 ft 7 kts 166°
2026-05-04 09:38 49.70802 -2.21476 292 ft 12 kts 242°
2026-05-04 09:38 49.70751 -2.21577 290 ft 8 kts 172°
2026-05-04 09:39 49.70687 -2.21541 298 ft 15 kts 155°
2026-05-04 09:39 49.70658 -2.21584 297 ft 13 kts 261°
2026-05-04 09:39 49.70626 -2.21867 297 ft 31 kts 257°
2026-05-04 09:39 49.70592 -2.22039 300 ft 7 kts 264°
2026-05-04 09:40 49.70610 -2.22041 300 ft 4 kts 75°
2026-05-04 09:40 49.70611 -2.21988 297 ft 6 kts 80°
2026-05-04 09:40 49.70660 -2.21582 297 ft 78 kts 79°
2026-05-04 09:40 49.70771 -2.20674 651 ft 90 kts 77°
2026-05-04 09:41 49.70926 -2.19680 1042 ft 97 kts 82°
2026-05-04 09:42 49.67924 -2.21584 3497 ft 141 kts 240°
2026-05-04 09:43 49.67433 -2.23000 3505 ft 157 kts 241°
2026-05-04 09:43 49.66901 -2.24528 3504 ft 163 kts 241°
2026-05-04 09:43 49.66362 -2.26076 3504 ft 164 kts 241°
2026-05-04 09:43 49.65819 -2.27624 3505 ft 164 kts 241°
2026-05-04 09:44 49.65278 -2.29169 3503 ft 164 kts 240°
2026-05-04 09:44 49.64735 -2.30720 3504 ft 164 kts 240°
2026-05-04 09:44 49.64188 -2.32273 3502 ft 164 kts 240°
2026-05-04 09:46 49.60368 -2.43105 3498 ft 165 kts 240°
2026-05-04 09:46 49.59820 -2.44658 3497 ft 165 kts 240°
2026-05-04 09:46 49.59271 -2.46212 3498 ft 165 kts 240°
2026-05-04 09:47 49.58909 -2.47236 3498 ft 165 kts 240°
2026-05-04 09:47 49.58184 -2.49294 3494 ft 165 kts 240°
2026-05-04 09:49 49.54181 -2.59406 3154 ft 170 kts 231°
2026-05-04 09:49 49.53444 -2.60836 3028 ft 171 kts 231°
2026-05-04 09:49 49.52702 -2.62268 2901 ft 171 kts 231°
2026-05-04 09:51 49.48213 -2.70879 2130 ft 172 kts 231°
2026-05-04 09:51 49.47461 -2.72315 2002 ft 172 kts 231°
2026-05-04 09:51 49.46748 -2.73679 1857 ft 154 kts 231°
2026-05-04 09:51 49.45964 -2.74658 1683 ft 144 kts 196°
2026-05-04 09:52 49.44995 -2.74606 1534 ft 137 kts 169°
2026-05-04 09:52 49.44091 -2.74389 1499 ft 127 kts 171°
2026-05-04 09:52 49.43356 -2.73930 1496 ft 109 kts 131°
2026-05-04 09:52 49.43212 -2.72879 1491 ft 100 kts 86°
2026-05-04 09:53 49.43211 -2.71827 1484 ft 97 kts 90°
2026-05-04 09:53 49.43224 -2.70798 1484 ft 95 kts 89°
2026-05-04 09:53 49.43247 -2.69738 1438 ft 105 kts 88°
2026-05-04 09:53 49.43272 -2.68557 1315 ft 116 kts 88°
2026-05-04 09:54 49.43302 -2.67300 1154 ft 116 kts 88°
2026-05-04 09:54 49.43332 -2.66068 979 ft 112 kts 88°
2026-05-04 09:54 49.43360 -2.64941 816 ft 99 kts 87°
2026-05-04 09:54 49.43390 -2.63932 679 ft 90 kts 86°
2026-05-04 09:55 49.43423 -2.62911 573 ft 101 kts 86°
2026-05-04 09:55 49.43453 -2.61799 437 ft 106 kts 87°
2026-05-04 09:55 49.43480 -2.60757 353 ft 87 kts 86°
2026-05-04 09:55 49.43506 -2.59926 341 ft 70 kts 88°
2026-05-04 09:56 49.43521 -2.59335 347 ft 23 kts 89°
2026-05-04 09:56 49.43509 -2.59211 353 ft 10 kts 152°
2026-05-04 09:56 49.43428 -2.59194 338 ft 12 kts 182°
2026-05-04 09:56 49.43418 -2.59195 337 ft 1 kts 184°
2026-05-04 09:57 49.43377 -2.59171 336 ft 7 kts 118°
2026-05-04 09:57 49.43335 -2.59172 335 ft 6 kts 246°
2026-05-04 09:57 49.43336 -2.59190 337 ft 1 kts 304°
2026-05-04 09:57 49.43338 -2.59193 339 ft 0 kts 323°